TimeEDT,TemperatureF,Dew PointF,Humidity,Sea Level PressureIn,VisibilityMPH,Wind Direction,Wind SpeedMPH,Gust SpeedMPH,PrecipitationIn,Events,Conditions,WindDirDegrees,DateUTC
12:54 AM,66.0,59.0,78,29.99,10.0,Calm,Calm,-,N/A,,Mostly Cloudy,0,2012-09-23 04:54:00
1:54 AM,64.9,60.1,84,30.00,10.0,Calm,Calm,-,N/A,,Overcast,0,2012-09-23 05:54:00
2:54 AM,63.0,59.0,87,30.01,10.0,Calm,Calm,-,N/A,,Overcast,0,2012-09-23 06:54:00
3:54 AM,63.0,55.9,78,30.01,10.0,NNW,4.6,-,N/A,,Mostly Cloudy,330,2012-09-23 07:54:00
4:54 AM,61.0,54.0,78,30.02,10.0,Calm,Calm,-,N/A,,Mostly Cloudy,0,2012-09-23 08:54:00
5:54 AM,60.1,53.1,78,30.04,10.0,Calm,Calm,-,N/A,,Scattered Clouds,0,2012-09-23 09:54:00
6:54 AM,59.0,53.1,81,30.07,10.0,NNE,4.6,-,N/A,,Scattered Clouds,20,2012-09-23 10:54:00
7:54 AM,59.0,48.0,67,30.08,10.0,North,4.6,-,N/A,,Partly Cloudy,360,2012-09-23 11:54:00
8:54 AM,60.1,50.0,69,30.11,10.0,North,4.6,-,N/A,,Clear,10,2012-09-23 12:54:00
9:54 AM,63.0,48.9,60,30.12,10.0,NNE,8.1,-,N/A,,Clear,20,2012-09-23 13:54:00
10:54 AM,66.0,45.0,47,30.13,10.0,NNE,9.2,-,N/A,,Clear,20,2012-09-23 14:54:00
11:54 AM,69.1,43.0,39,30.12,10.0,North,10.4,16.1,N/A,,Clear,360,2012-09-23 15:54:00
12:54 PM,69.1,39.0,33,30.11,10.0,North,5.8,-,N/A,,Clear,350,2012-09-23 16:54:00
1:54 PM,71.1,36.0,28,30.09,10.0,North,8.1,-,N/A,,Clear,360,2012-09-23 17:54:00
2:54 PM,71.1,35.1,27,30.08,10.0,Variable,3.5,-,N/A,,Clear,0,2012-09-23 18:54:00
3:54 PM,71.1,37.0,29,30.07,10.0,Variable,4.6,-,N/A,,Partly Cloudy,0,2012-09-23 19:54:00
4:54 PM,72.0,39.0,30,30.07,10.0,Calm,Calm,-,N/A,,Partly Cloudy,0,2012-09-23 20:54:00
5:54 PM,72.0,39.0,30,30.07,10.0,Calm,Calm,-,N/A,,Partly Cloudy,0,2012-09-23 21:54:00
6:54 PM,64.9,41.0,42,30.08,10.0,ENE,6.9,-,N/A,,Clear,70,2012-09-23 22:54:00
7:54 PM,64.0,43.0,46,30.09,10.0,ENE,4.6,-,N/A,,Partly Cloudy,60,2012-09-23 23:54:00
8:54 PM,61.0,46.9,60,30.11,10.0,NNE,3.5,-,N/A,,Clear,20,2012-09-24 00:54:00
9:54 PM,59.0,48.0,67,30.12,10.0,Calm,Calm,-,N/A,,Clear,0,2012-09-24 01:54:00
10:54 PM,57.9,41.0,53,30.14,10.0,North,4.6,-,N/A,,Clear,350,2012-09-24 02:54:00
11:54 PM,55.9,39.9,55,30.15,10.0,North,5.8,-,N/A,,Clear,10,2012-09-24 03:54:00